sensor_id;sensor_type;location;lat;lon;timestamp;temperature;humidity
21149;DHT22;10732;51.472;6.466;2024-02-23T00:00:10;5.20;99.90
21149;DHT22;10732;51.472;6.466;2024-02-23T00:02:37;5.10;99.90
21149;DHT22;10732;51.472;6.466;2024-02-23T00:05:03;5.10;99.90
21149;DHT22;10732;51.472;6.466;2024-02-23T00:07:28;5.20;99.90
21149;DHT22;10732;51.472;6.466;2024-02-23T00:09:54;5.20;99.90
21149;DHT22;10732;51.472;6.466;2024-02-23T00:12:19;5.10;99.90
21149;DHT22;10732;51.472;6.466;2024-02-23T00:14:45;5.10;99.90
21149;DHT22;10732;51.472;6.466;2024-02-23T00:17:11;5.20;99.90
21149;DHT22;10732;51.472;6.466;2024-02-23T00:19:37;5.20;99.90
21149;DHT22;10732;51.472;6.466;2024-02-23T00:22:03;5.20;99.90
21149;DHT22;10732;51.472;6.466;2024-02-23T00:24:29;5.10;99.90
21149;DHT22;10732;51.472;6.466;2024-02-23T00:26:55;5.10;99.90
21149;DHT22;10732;51.472;6.466;2024-02-23T00:29:20;5.20;99.90
21149;DHT22;10732;51.472;6.466;2024-02-23T00:31:47;5.20;99.90
21149;DHT22;10732;51.472;6.466;2024-02-23T00:34:13;5.20;99.90
21149;DHT22;10732;51.472;6.466;2024-02-23T00:36:41;5.20;99.90
21149;DHT22;10732;51.472;6.466;2024-02-23T00:39:07;5.20;99.90
21149;DHT22;10732;51.472;6.466;2024-02-23T00:41:34;5.30;99.90
21149;DHT22;10732;51.472;6.466;2024-02-23T00:44:00;5.30;99.90
21149;DHT22;10732;51.472;6.466;2024-02-23T00:46:25;5.30;99.90
21149;DHT22;10732;51.472;6.466;2024-02-23T00:48:51;5.30;99.90
21149;DHT22;10732;51.472;6.466;2024-02-23T00:51:16;5.40;99.90
21149;DHT22;10732;51.472;6.466;2024-02-23T00:53:42;5.40;99.90
21149;DHT22;10732;51.472;6.466;2024-02-23T00:56:08;5.30;99.90
21149;DHT22;10732;51.472;6.466;2024-02-23T00:58:33;5.20;99.90
21149;DHT22;10732;51.472;6.466;2024-02-23T01:01:00;5.30;99.90
21149;DHT22;10732;51.472;6.466;2024-02-23T01:03:25;5.30;99.90
21149;DHT22;10732;51.472;6.466;2024-02-23T01:05:51;5.30;99.90
21149;DHT22;10732;51.472;6.466;2024-02-23T01:08:17;5.20;99.90
21149;DHT22;10732;51.472;6.466;2024-02-23T01:10:42;5.20;99.90
21149;DHT22;10732;51.472;6.466;2024-02-23T01:13:08;5.20;99.90
21149;DHT22;10732;51.472;6.466;2024-02-23T01:15:34;5.20;99.90
21149;DHT22;10732;51.472;6.466;2024-02-23T01:17:59;5.30;99.90
21149;DHT22;10732;51.472;6.466;2024-02-23T01:20:25;5.30;99.90
21149;DHT22;10732;51.472;6.466;2024-02-23T01:22:51;5.20;99.90
21149;DHT22;10732;51.472;6.466;2024-02-23T01:25:16;5.10;99.90
21149;DHT22;10732;51.472;6.466;2024-02-23T01:27:42;5.10;99.90
21149;DHT22;10732;51.472;6.466;2024-02-23T01:30:10;5.00;99.90
21149;DHT22;10732;51.472;6.466;2024-02-23T01:32:35;5.00;99.90
21149;DHT22;10732;51.472;6.466;2024-02-23T01:35:04;5.00;99.90
21149;DHT22;10732;51.472;6.466;2024-02-23T01:37:29;4.90;99.90
21149;DHT22;10732;51.472;6.466;2024-02-23T01:39:55;5.00;99.90
21149;DHT22;10732;51.472;6.466;2024-02-23T01:42:21;5.00;99.90
21149;DHT22;10732;51.472;6.466;2024-02-23T01:44:47;5.00;99.90
21149;DHT22;10732;51.472;6.466;2024-02-23T01:47:12;5.00;99.90
21149;DHT22;10732;51.472;6.466;2024-02-23T01:49:38;5.00;99.90
21149;DHT22;10732;51.472;6.466;2024-02-23T01:52:04;4.90;99.90
21149;DHT22;10732;51.472;6.466;2024-02-23T01:54:31;4.90;99.90
21149;DHT22;10732;51.472;6.466;2024-02-23T01:56:57;5.00;99.90
21149;DHT22;10732;51.472;6.466;2024-02-23T01:59:24;5.10;99.90
21149;DHT22;10732;51.472;6.466;2024-02-23T02:01:51;5.20;99.90
21149;DHT22;10732;51.472;6.466;2024-02-23T02:04:17;5.30;99.90
21149;DHT22;10732;51.472;6.466;2024-02-23T02:06:44;5.30;99.90
21149;DHT22;10732;51.472;6.466;2024-02-23T02:09:10;5.30;99.90
21149;DHT22;10732;51.472;6.466;2024-02-23T02:11:48;5.30;99.90
21149;DHT22;10732;51.472;6.466;2024-02-23T02:14:14;5.30;99.90
21149;DHT22;10732;51.472;6.466;2024-02-23T02:16:40;5.30;99.90
21149;DHT22;10732;51.472;6.466;2024-02-23T02:19:05;5.20;99.90
21149;DHT22;10732;51.472;6.466;2024-02-23T02:21:32;5.10;99.90
21149;DHT22;10732;51.472;6.466;2024-02-23T02:23:57;5.00;99.90
21149;DHT22;10732;51.472;6.466;2024-02-23T02:26:23;5.00;99.90
21149;DHT22;10732;51.472;6.466;2024-02-23T02:28:49;4.90;99.90
21149;DHT22;10732;51.472;6.466;2024-02-23T02:31:14;4.90;99.90
21149;DHT22;10732;51.472;6.466;2024-02-23T02:33:40;4.80;99.90
21149;DHT22;10732;51.472;6.466;2024-02-23T02:36:07;4.80;99.90
21149;DHT22;10732;51.472;6.466;2024-02-23T02:38:32;4.80;99.90
21149;DHT22;10732;51.472;6.466;2024-02-23T02:41:01;4.70;99.90
21149;DHT22;10732;51.472;6.466;2024-02-23T02:43:27;4.70;99.90
21149;DHT22;10732;51.472;6.466;2024-02-23T02:45:52;4.70;99.90
21149;DHT22;10732;51.472;6.466;2024-02-23T02:48:18;4.70;99.90
21149;DHT22;10732;51.472;6.466;2024-02-23T02:50:44;4.60;99.90
21149;DHT22;10732;51.472;6.466;2024-02-23T02:53:10;4.60;99.90
21149;DHT22;10732;51.472;6.466;2024-02-23T02:55:36;4.50;99.90
21149;DHT22;10732;51.472;6.466;2024-02-23T02:58:02;4.60;99.90
21149;DHT22;10732;51.472;6.466;2024-02-23T03:00:28;4.60;99.90
21149;DHT22;10732;51.472;6.466;2024-02-23T03:02:53;4.60;99.90
21149;DHT22;10732;51.472;6.466;2024-02-23T03:05:19;4.60;99.90
21149;DHT22;10732;51.472;6.466;2024-02-23T03:07:45;4.60;99.90
21149;DHT22;10732;51.472;6.466;2024-02-23T03:10:10;4.60;99.90
21149;DHT22;10732;51.472;6.466;2024-02-23T03:12:36;4.50;99.90
21149;DHT22;10732;51.472;6.466;2024-02-23T03:15:02;4.40;99.90
21149;DHT22;10732;51.472;6.466;2024-02-23T03:17:28;4.40;99.90
21149;DHT22;10732;51.472;6.466;2024-02-23T03:19:54;4.50;99.90
21149;DHT22;10732;51.472;6.466;2024-02-23T03:22:20;4.50;99.90
21149;DHT22;10732;51.472;6.466;2024-02-23T03:24:45;4.50;99.90
21149;DHT22;10732;51.472;6.466;2024-02-23T03:27:11;4.50;99.90
21149;DHT22;10732;51.472;6.466;2024-02-23T03:29:38;4.50;99.90
21149;DHT22;10732;51.472;6.466;2024-02-23T03:32:05;4.50;99.90
21149;DHT22;10732;51.472;6.466;2024-02-23T03:34:30;4.50;99.90
21149;DHT22;10732;51.472;6.466;2024-02-23T03:36:56;4.50;99.90
21149;DHT22;10732;51.472;6.466;2024-02-23T03:39:23;4.50;99.90
21149;DHT22;10732;51.472;6.466;2024-02-23T03:41:49;4.50;99.90
21149;DHT22;10732;51.472;6.466;2024-02-23T03:44:14;4.60;99.90
21149;DHT22;10732;51.472;6.466;2024-02-23T03:46:40;4.50;99.90
21149;DHT22;10732;51.472;6.466;2024-02-23T03:49:06;4.60;99.90
21149;DHT22;10732;51.472;6.466;2024-02-23T03:51:31;4.50;99.90
21149;DHT22;10732;51.472;6.466;2024-02-23T03:53:59;4.50;99.90
21149;DHT22;10732;51.472;6.466;2024-02-23T03:56:25;4.50;99.90
21149;DHT22;10732;51.472;6.466;2024-02-23T03:58:50;4.60;99.90
21149;DHT22;10732;51.472;6.466;2024-02-23T04:01:16;4.50;99.90
21149;DHT22;10732;51.472;6.466;2024-02-23T04:03:42;4.50;99.90
21149;DHT22;10732;51.472;6.466;2024-02-23T04:06:07;4.50;99.90
21149;DHT22;10732;51.472;6.466;2024-02-23T04:08:33;4.50;99.90
21149;DHT22;10732;51.472;6.466;2024-02-23T04:10:59;4.60;99.90
21149;DHT22;10732;51.472;6.466;2024-02-23T04:13:24;4.80;99.90
21149;DHT22;10732;51.472;6.466;2024-02-23T04:15:50;4.80;99.90
21149;DHT22;10732;51.472;6.466;2024-02-23T04:18:15;4.80;99.90
21149;DHT22;10732;51.472;6.466;2024-02-23T04:20:41;4.70;99.90
21149;DHT22;10732;51.472;6.466;2024-02-23T04:23:07;4.70;99.90
21149;DHT22;10732;51.472;6.466;2024-02-23T04:25:32;4.70;99.90
21149;DHT22;10732;51.472;6.466;2024-02-23T04:27:58;4.70;99.90
21149;DHT22;10732;51.472;6.466;2024-02-23T04:30:24;4.80;99.90
21149;DHT22;10732;51.472;6.466;2024-02-23T04:32:49;4.90;99.90
21149;DHT22;10732;51.472;6.466;2024-02-23T04:35:15;4.90;99.90
21149;DHT22;10732;51.472;6.466;2024-02-23T04:37:44;4.90;99.90
21149;DHT22;10732;51.472;6.466;2024-02-23T04:40:10;4.90;99.90
21149;DHT22;10732;51.472;6.466;2024-02-23T04:42:36;4.80;99.90
21149;DHT22;10732;51.472;6.466;2024-02-23T04:45:02;4.80;99.90
21149;DHT22;10732;51.472;6.466;2024-02-23T04:47:28;4.70;99.90
21149;DHT22;10732;51.472;6.466;2024-02-23T04:49:53;4.70;99.90
21149;DHT22;10732;51.472;6.466;2024-02-23T04:52:19;4.70;99.90
21149;DHT22;10732;51.472;6.466;2024-02-23T04:54:45;4.60;99.90
21149;DHT22;10732;51.472;6.466;2024-02-23T04:57:11;4.70;99.90
21149;DHT22;10732;51.472;6.466;2024-02-23T04:59:36;4.60;99.90
21149;DHT22;10732;51.472;6.466;2024-02-23T05:02:02;4.50;99.90
21149;DHT22;10732;51.472;6.466;2024-02-23T05:04:27;4.50;99.90
21149;DHT22;10732;51.472;6.466;2024-02-23T05:06:53;4.60;99.90
21149;DHT22;10732;51.472;6.466;2024-02-23T05:09:19;4.60;99.90
21149;DHT22;10732;51.472;6.466;2024-02-23T05:11:46;4.60;99.90
21149;DHT22;10732;51.472;6.466;2024-02-23T05:14:12;4.60;99.90
21149;DHT22;10732;51.472;6.466;2024-02-23T05:16:38;4.60;99.90
21149;DHT22;10732;51.472;6.466;2024-02-23T05:19:04;4.60;99.90
21149;DHT22;10732;51.472;6.466;2024-02-23T05:21:29;4.60;99.90
21149;DHT22;10732;51.472;6.466;2024-02-23T05:23:55;4.60;99.90
21149;DHT22;10732;51.472;6.466;2024-02-23T05:26:20;4.70;99.90
21149;DHT22;10732;51.472;6.466;2024-02-23T05:28:46;4.70;99.90
21149;DHT22;10732;51.472;6.466;2024-02-23T05:31:12;4.70;99.90
21149;DHT22;10732;51.472;6.466;2024-02-23T05:33:37;4.70;99.90
21149;DHT22;10732;51.472;6.466;2024-02-23T05:36:04;4.70;99.90
21149;DHT22;10732;51.472;6.466;2024-02-23T05:38:30;4.70;99.90
21149;DHT22;10732;51.472;6.466;2024-02-23T05:40:56;4.80;99.90
21149;DHT22;10732;51.472;6.466;2024-02-23T05:43:22;4.80;99.90
21149;DHT22;10732;51.472;6.466;2024-02-23T05:45:47;4.80;99.90
21149;DHT22;10732;51.472;6.466;2024-02-23T05:48:13;4.80;99.90
21149;DHT22;10732;51.472;6.466;2024-02-23T05:50:39;4.80;99.90
21149;DHT22;10732;51.472;6.466;2024-02-23T05:53:04;4.80;99.90
21149;DHT22;10732;51.472;6.466;2024-02-23T05:55:30;4.80;99.90
21149;DHT22;10732;51.472;6.466;2024-02-23T05:57:56;4.90;99.90
21149;DHT22;10732;51.472;6.466;2024-02-23T06:00:21;4.90;99.90
21149;DHT22;10732;51.472;6.466;2024-02-23T06:02:47;4.90;99.90
21149;DHT22;10732;51.472;6.466;2024-02-23T06:05:13;4.90;99.90
21149;DHT22;10732;51.472;6.466;2024-02-23T06:07:39;4.90;99.90
21149;DHT22;10732;51.472;6.466;2024-02-23T06:10:05;5.00;99.90
21149;DHT22;10732;51.472;6.466;2024-02-23T06:12:31;5.10;99.90
21149;DHT22;10732;51.472;6.466;2024-02-23T06:14:57;5.20;99.90
21149;DHT22;10732;51.472;6.466;2024-02-23T06:17:24;5.20;99.90
21149;DHT22;10732;51.472;6.466;2024-02-23T06:19:49;5.20;99.90
21149;DHT22;10732;51.472;6.466;2024-02-23T06:22:15;5.30;99.90
21149;DHT22;10732;51.472;6.466;2024-02-23T06:24:49;5.30;99.90
21149;DHT22;10732;51.472;6.466;2024-02-23T06:27:14;5.40;99.90
21149;DHT22;10732;51.472;6.466;2024-02-23T06:29:40;5.40;99.90
21149;DHT22;10732;51.472;6.466;2024-02-23T06:32:06;5.40;99.90
21149;DHT22;10732;51.472;6.466;2024-02-23T06:34:33;5.50;99.90
21149;DHT22;10732;51.472;6.466;2024-02-23T06:36:59;5.40;99.90
21149;DHT22;10732;51.472;6.466;2024-02-23T06:39:24;5.50;99.90
21149;DHT22;10732;51.472;6.466;2024-02-23T06:41:50;5.50;99.90
21149;DHT22;10732;51.472;6.466;2024-02-23T06:44:15;5.50;99.90
21149;DHT22;10732;51.472;6.466;2024-02-23T06:46:41;5.60;99.90
21149;DHT22;10732;51.472;6.466;2024-02-23T06:49:07;5.60;99.90
21149;DHT22;10732;51.472;6.466;2024-02-23T06:51:34;5.60;99.90
21149;DHT22;10732;51.472;6.466;2024-02-23T06:54:00;5.60;99.90
21149;DHT22;10732;51.472;6.466;2024-02-23T06:56:25;5.60;99.90
21149;DHT22;10732;51.472;6.466;2024-02-23T06:58:51;5.60;99.90
21149;DHT22;10732;51.472;6.466;2024-02-23T07:01:16;5.70;99.90
21149;DHT22;10732;51.472;6.466;2024-02-23T07:03:42;5.70;99.90
21149;DHT22;10732;51.472;6.466;2024-02-23T07:06:09;5.70;99.90
21149;DHT22;10732;51.472;6.466;2024-02-23T07:08:36;5.70;99.90
21149;DHT22;10732;51.472;6.466;2024-02-23T07:11:02;5.80;99.90
21149;DHT22;10732;51.472;6.466;2024-02-23T07:13:27;5.80;99.90
21149;DHT22;10732;51.472;6.466;2024-02-23T07:15:53;5.90;99.90
21149;DHT22;10732;51.472;6.466;2024-02-23T07:18:19;5.70;99.90
21149;DHT22;10732;51.472;6.466;2024-02-23T07:20:44;5.90;99.90
21149;DHT22;10732;51.472;6.466;2024-02-23T07:23:10;5.90;99.90
21149;DHT22;10732;51.472;6.466;2024-02-23T07:25:35;5.90;99.90
21149;DHT22;10732;51.472;6.466;2024-02-23T07:28:01;6.00;99.90
21149;DHT22;10732;51.472;6.466;2024-02-23T07:30:27;6.00;99.90
21149;DHT22;10732;51.472;6.466;2024-02-23T07:32:52;6.10;99.90
21149;DHT22;10732;51.472;6.466;2024-02-23T07:35:18;6.10;99.90
21149;DHT22;10732;51.472;6.466;2024-02-23T07:37:43;6.10;99.90
21149;DHT22;10732;51.472;6.466;2024-02-23T07:40:09;6.20;99.90
21149;DHT22;10732;51.472;6.466;2024-02-23T07:42:35;6.20;99.90
21149;DHT22;10732;51.472;6.466;2024-02-23T07:45:05;6.30;99.90
21149;DHT22;10732;51.472;6.466;2024-02-23T07:47:31;6.30;99.90
21149;DHT22;10732;51.472;6.466;2024-02-23T07:49:58;6.30;99.90
21149;DHT22;10732;51.472;6.466;2024-02-23T07:52:24;6.40;99.90
21149;DHT22;10732;51.472;6.466;2024-02-23T07:54:52;6.40;99.90
21149;DHT22;10732;51.472;6.466;2024-02-23T07:57:19;6.40;99.90
21149;DHT22;10732;51.472;6.466;2024-02-23T07:59:44;6.50;99.90
21149;DHT22;10732;51.472;6.466;2024-02-23T08:02:10;6.60;99.90
21149;DHT22;10732;51.472;6.466;2024-02-23T08:04:36;6.80;99.90
21149;DHT22;10732;51.472;6.466;2024-02-23T08:07:02;6.80;99.90
21149;DHT22;10732;51.472;6.466;2024-02-23T08:09:27;6.70;99.90
21149;DHT22;10732;51.472;6.466;2024-02-23T08:11:53;6.60;99.90
21149;DHT22;10732;51.472;6.466;2024-02-23T08:14:18;6.70;99.90
21149;DHT22;10732;51.472;6.466;2024-02-23T08:16:44;6.60;99.90
21149;DHT22;10732;51.472;6.466;2024-02-23T08:19:09;6.80;99.90
21149;DHT22;10732;51.472;6.466;2024-02-23T08:21:35;6.80;99.90
21149;DHT22;10732;51.472;6.466;2024-02-23T08:24:01;6.80;99.90
21149;DHT22;10732;51.472;6.466;2024-02-23T08:26:28;7.10;99.90
21149;DHT22;10732;51.472;6.466;2024-02-23T08:28:53;7.60;99.90
21149;DHT22;10732;51.472;6.466;2024-02-23T08:31:19;7.60;99.90
21149;DHT22;10732;51.472;6.466;2024-02-23T08:33:45;7.30;99.90
21149;DHT22;10732;51.472;6.466;2024-02-23T08:36:10;7.20;99.90
21149;DHT22;10732;51.472;6.466;2024-02-23T08:38:36;7.20;99.90
21149;DHT22;10732;51.472;6.466;2024-02-23T08:41:02;7.00;99.90
21149;DHT22;10732;51.472;6.466;2024-02-23T08:43:28;6.90;99.90
21149;DHT22;10732;51.472;6.466;2024-02-23T08:45:54;6.90;99.90
21149;DHT22;10732;51.472;6.466;2024-02-23T08:48:19;6.80;99.90
21149;DHT22;10732;51.472;6.466;2024-02-23T08:50:45;6.90;99.90
21149;DHT22;10732;51.472;6.466;2024-02-23T08:53:11;7.00;99.90
21149;DHT22;10732;51.472;6.466;2024-02-23T08:55:36;7.20;99.90
21149;DHT22;10732;51.472;6.466;2024-02-23T08:58:02;7.30;99.90
21149;DHT22;10732;51.472;6.466;2024-02-23T09:00:28;7.20;99.90
21149;DHT22;10732;51.472;6.466;2024-02-23T09:02:54;7.50;99.90
21149;DHT22;10732;51.472;6.466;2024-02-23T09:05:19;8.70;99.90
21149;DHT22;10732;51.472;6.466;2024-02-23T09:07:46;8.90;99.90
21149;DHT22;10732;51.472;6.466;2024-02-23T09:10:12;8.60;99.90
21149;DHT22;10732;51.472;6.466;2024-02-23T09:12:37;8.20;99.90
21149;DHT22;10732;51.472;6.466;2024-02-23T09:15:04;7.90;99.90
21149;DHT22;10732;51.472;6.466;2024-02-23T09:17:30;7.50;99.90
21149;DHT22;10732;51.472;6.466;2024-02-23T09:19:56;7.60;99.90
21149;DHT22;10732;51.472;6.466;2024-02-23T09:22:21;7.40;99.90
21149;DHT22;10732;51.472;6.466;2024-02-23T09:24:48;7.40;99.90
21149;DHT22;10732;51.472;6.466;2024-02-23T09:27:13;7.60;99.90
21149;DHT22;10732;51.472;6.466;2024-02-23T09:29:40;7.40;99.90
21149;DHT22;10732;51.472;6.466;2024-02-23T09:32:07;7.30;99.90
21149;DHT22;10732;51.472;6.466;2024-02-23T09:34:33;7.40;99.90
21149;DHT22;10732;51.472;6.466;2024-02-23T09:36:58;7.30;99.90
21149;DHT22;10732;51.472;6.466;2024-02-23T09:39:24;7.40;99.90
21149;DHT22;10732;51.472;6.466;2024-02-23T09:41:52;7.70;99.90
21149;DHT22;10732;51.472;6.466;2024-02-23T09:44:20;8.00;99.90
21149;DHT22;10732;51.472;6.466;2024-02-23T09:46:48;8.10;99.90
21149;DHT22;10732;51.472;6.466;2024-02-23T09:49:15;8.40;99.90
21149;DHT22;10732;51.472;6.466;2024-02-23T09:51:41;8.20;99.90
21149;DHT22;10732;51.472;6.466;2024-02-23T09:54:07;8.10;99.90
21149;DHT22;10732;51.472;6.466;2024-02-23T09:56:33;8.20;99.90
21149;DHT22;10732;51.472;6.466;2024-02-23T09:59:02;8.10;99.90
21149;DHT22;10732;51.472;6.466;2024-02-23T10:01:30;7.70;99.90
21149;DHT22;10732;51.472;6.466;2024-02-23T10:03:57;7.60;99.90
21149;DHT22;10732;51.472;6.466;2024-02-23T10:06:26;7.70;99.90
21149;DHT22;10732;51.472;6.466;2024-02-23T10:08:53;7.60;99.90
21149;DHT22;10732;51.472;6.466;2024-02-23T10:11:21;7.50;99.90
21149;DHT22;10732;51.472;6.466;2024-02-23T10:13:48;7.60;99.90
21149;DHT22;10732;51.472;6.466;2024-02-23T10:16:18;7.60;99.90
21149;DHT22;10732;51.472;6.466;2024-02-23T10:18:46;7.50;99.90
21149;DHT22;10732;51.472;6.466;2024-02-23T10:21:12;7.50;99.90
21149;DHT22;10732;51.472;6.466;2024-02-23T10:23:38;7.40;99.90
21149;DHT22;10732;51.472;6.466;2024-02-23T10:26:06;7.40;99.90
21149;DHT22;10732;51.472;6.466;2024-02-23T10:28:31;7.40;99.90
21149;DHT22;10732;51.472;6.466;2024-02-23T10:30:57;7.30;99.90
21149;DHT22;10732;51.472;6.466;2024-02-23T10:33:23;7.30;99.90
21149;DHT22;10732;51.472;6.466;2024-02-23T10:35:53;7.40;99.90
21149;DHT22;10732;51.472;6.466;2024-02-23T10:38:22;7.40;99.90
21149;DHT22;10732;51.472;6.466;2024-02-23T10:40:49;7.50;99.90
21149;DHT22;10732;51.472;6.466;2024-02-23T10:43:19;7.40;99.90
21149;DHT22;10732;51.472;6.466;2024-02-23T10:45:46;7.50;99.90
21149;DHT22;10732;51.472;6.466;2024-02-23T10:48:12;7.50;99.90
21149;DHT22;10732;51.472;6.466;2024-02-23T10:50:40;7.50;99.90
21149;DHT22;10732;51.472;6.466;2024-02-23T10:53:10;7.60;99.90
21149;DHT22;10732;51.472;6.466;2024-02-23T10:55:37;7.50;99.90
21149;DHT22;10732;51.472;6.466;2024-02-23T10:58:09;7.50;99.90
21149;DHT22;10732;51.472;6.466;2024-02-23T11:00:37;7.60;99.90
21149;DHT22;10732;51.472;6.466;2024-02-23T11:03:03;7.80;99.90
21149;DHT22;10732;51.472;6.466;2024-02-23T11:05:30;7.80;99.90
21149;DHT22;10732;51.472;6.466;2024-02-23T11:07:56;7.80;99.90
21149;DHT22;10732;51.472;6.466;2024-02-23T11:10:22;7.80;99.90
21149;DHT22;10732;51.472;6.466;2024-02-23T11:12:58;7.80;99.90
21149;DHT22;10732;51.472;6.466;2024-02-23T11:15:29;7.80;99.90
21149;DHT22;10732;51.472;6.466;2024-02-23T11:17:56;7.90;99.90
21149;DHT22;10732;51.472;6.466;2024-02-23T11:20:21;8.00;99.90
21149;DHT22;10732;51.472;6.466;2024-02-23T11:22:52;7.90;99.90
21149;DHT22;10732;51.472;6.466;2024-02-23T11:25:26;7.70;99.90
21149;DHT22;10732;51.472;6.466;2024-02-23T11:27:52;7.70;99.90
21149;DHT22;10732;51.472;6.466;2024-02-23T11:30:18;7.70;99.90
21149;DHT22;10732;51.472;6.466;2024-02-23T11:32:46;7.70;99.90
21149;DHT22;10732;51.472;6.466;2024-02-23T11:35:14;7.60;99.90
21149;DHT22;10732;51.472;6.466;2024-02-23T11:37:56;7.60;99.90
21149;DHT22;10732;51.472;6.466;2024-02-23T11:40:26;7.50;99.90
21149;DHT22;10732;51.472;6.466;2024-02-23T11:42:52;7.50;99.90
21149;DHT22;10732;51.472;6.466;2024-02-23T11:45:18;7.60;99.90
21149;DHT22;10732;51.472;6.466;2024-02-23T11:47:43;7.60;99.90
21149;DHT22;10732;51.472;6.466;2024-02-23T11:50:10;7.60;99.90
21149;DHT22;10732;51.472;6.466;2024-02-23T11:52:39;7.60;99.90
21149;DHT22;10732;51.472;6.466;2024-02-23T11:55:05;7.60;99.90
21149;DHT22;10732;51.472;6.466;2024-02-23T11:57:34;7.60;99.90
21149;DHT22;10732;51.472;6.466;2024-02-23T12:00:04;7.80;99.90
21149;DHT22;10732;51.472;6.466;2024-02-23T12:02:35;7.90;99.90
21149;DHT22;10732;51.472;6.466;2024-02-23T12:05:01;8.00;99.90
21149;DHT22;10732;51.472;6.466;2024-02-23T12:07:28;8.10;99.90
21149;DHT22;10732;51.472;6.466;2024-02-23T12:09:55;8.10;99.90
21149;DHT22;10732;51.472;6.466;2024-02-23T12:12:20;7.90;99.90
21149;DHT22;10732;51.472;6.466;2024-02-23T12:14:48;8.00;99.90
21149;DHT22;10732;51.472;6.466;2024-02-23T12:17:13;8.10;99.90
21149;DHT22;10732;51.472;6.466;2024-02-23T12:19:40;8.00;99.90
21149;DHT22;10732;51.472;6.466;2024-02-23T12:22:06;8.00;99.90
21149;DHT22;10732;51.472;6.466;2024-02-23T12:24:32;7.90;99.90
21149;DHT22;10732;51.472;6.466;2024-02-23T12:26:57;8.00;99.90
21149;DHT22;10732;51.472;6.466;2024-02-23T12:29:23;8.10;99.90
21149;DHT22;10732;51.472;6.466;2024-02-23T12:31:49;8.00;99.90
21149;DHT22;10732;51.472;6.466;2024-02-23T12:34:15;8.00;99.90
21149;DHT22;10732;51.472;6.466;2024-02-23T12:36:41;8.00;99.90
21149;DHT22;10732;51.472;6.466;2024-02-23T12:39:08;7.90;99.90
21149;DHT22;10732;51.472;6.466;2024-02-23T12:41:33;8.00;99.90
21149;DHT22;10732;51.472;6.466;2024-02-23T12:43:59;8.10;99.90
21149;DHT22;10732;51.472;6.466;2024-02-23T12:46:25;8.00;99.90
21149;DHT22;10732;51.472;6.466;2024-02-23T12:48:51;8.00;99.90
21149;DHT22;10732;51.472;6.466;2024-02-23T12:51:16;8.10;99.90
21149;DHT22;10732;51.472;6.466;2024-02-23T12:53:43;8.20;99.90
21149;DHT22;10732;51.472;6.466;2024-02-23T12:56:13;8.20;99.90
21149;DHT22;10732;51.472;6.466;2024-02-23T12:58:42;8.20;99.90
21149;DHT22;10732;51.472;6.466;2024-02-23T13:01:09;8.20;99.90
21149;DHT22;10732;51.472;6.466;2024-02-23T13:03:36;8.10;99.90
21149;DHT22;10732;51.472;6.466;2024-02-23T13:06:03;8.20;99.90
21149;DHT22;10732;51.472;6.466;2024-02-23T13:08:29;8.00;99.90
21149;DHT22;10732;51.472;6.466;2024-02-23T13:10:56;8.00;99.90
21149;DHT22;10732;51.472;6.466;2024-02-23T13:13:23;8.00;99.90
21149;DHT22;10732;51.472;6.466;2024-02-23T13:15:51;8.10;99.90
21149;DHT22;10732;51.472;6.466;2024-02-23T13:18:17;8.10;99.90
21149;DHT22;10732;51.472;6.466;2024-02-23T13:20:42;8.10;99.90
21149;DHT22;10732;51.472;6.466;2024-02-23T13:23:09;8.10;99.90
21149;DHT22;10732;51.472;6.466;2024-02-23T13:25:35;8.10;99.90
21149;DHT22;10732;51.472;6.466;2024-02-23T13:28:01;8.00;99.90
21149;DHT22;10732;51.472;6.466;2024-02-23T13:30:27;8.10;99.90
21149;DHT22;10732;51.472;6.466;2024-02-23T13:32:53;8.10;99.90
21149;DHT22;10732;51.472;6.466;2024-02-23T13:35:19;8.10;99.90
21149;DHT22;10732;51.472;6.466;2024-02-23T13:37:45;8.10;99.90
21149;DHT22;10732;51.472;6.466;2024-02-23T13:40:11;8.10;99.90
21149;DHT22;10732;51.472;6.466;2024-02-23T13:42:37;8.10;99.90
21149;DHT22;10732;51.472;6.466;2024-02-23T13:45:07;8.10;99.90
21149;DHT22;10732;51.472;6.466;2024-02-23T13:47:34;8.00;99.90
21149;DHT22;10732;51.472;6.466;2024-02-23T13:50:00;8.00;99.90
21149;DHT22;10732;51.472;6.466;2024-02-23T13:52:26;8.10;99.90
21149;DHT22;10732;51.472;6.466;2024-02-23T13:54:52;8.10;99.90
21149;DHT22;10732;51.472;6.466;2024-02-23T13:57:17;8.10;99.90
21149;DHT22;10732;51.472;6.466;2024-02-23T13:59:43;8.20;99.90
21149;DHT22;10732;51.472;6.466;2024-02-23T14:02:09;8.30;99.90
21149;DHT22;10732;51.472;6.466;2024-02-23T14:04:34;8.40;99.90
21149;DHT22;10732;51.472;6.466;2024-02-23T14:07:01;8.40;99.90
21149;DHT22;10732;51.472;6.466;2024-02-23T14:09:26;8.40;99.90
21149;DHT22;10732;51.472;6.466;2024-02-23T14:11:52;8.40;99.90
21149;DHT22;10732;51.472;6.466;2024-02-23T14:14:18;8.60;99.90
21149;DHT22;10732;51.472;6.466;2024-02-23T14:16:44;8.70;99.90
21149;DHT22;10732;51.472;6.466;2024-02-23T14:19:09;8.80;99.90
21149;DHT22;10732;51.472;6.466;2024-02-23T14:21:35;8.80;99.90
21149;DHT22;10732;51.472;6.466;2024-02-23T14:24:02;8.90;99.90
21149;DHT22;10732;51.472;6.466;2024-02-23T14:26:28;8.80;99.90
21149;DHT22;10732;51.472;6.466;2024-02-23T14:28:53;8.90;99.90
21149;DHT22;10732;51.472;6.466;2024-02-23T14:31:19;8.90;99.90
21149;DHT22;10732;51.472;6.466;2024-02-23T14:33:45;9.00;99.90
21149;DHT22;10732;51.472;6.466;2024-02-23T14:36:10;9.10;99.90
21149;DHT22;10732;51.472;6.466;2024-02-23T14:38:36;9.10;99.90
21149;DHT22;10732;51.472;6.466;2024-02-23T14:41:02;9.10;99.90
21149;DHT22;10732;51.472;6.466;2024-02-23T14:43:28;9.10;99.90
21149;DHT22;10732;51.472;6.466;2024-02-23T14:45:57;9.20;99.90
21149;DHT22;10732;51.472;6.466;2024-02-23T14:48:22;9.10;99.90
21149;DHT22;10732;51.472;6.466;2024-02-23T14:50:48;9.10;99.90
21149;DHT22;10732;51.472;6.466;2024-02-23T14:53:15;9.00;99.90
21149;DHT22;10732;51.472;6.466;2024-02-23T14:55:40;8.90;99.90
21149;DHT22;10732;51.472;6.466;2024-02-23T14:58:06;8.90;99.90
21149;DHT22;10732;51.472;6.466;2024-02-23T15:00:32;9.00;99.90
21149;DHT22;10732;51.472;6.466;2024-02-23T15:02:58;8.90;99.90
21149;DHT22;10732;51.472;6.466;2024-02-23T15:05:24;9.00;99.90
21149;DHT22;10732;51.472;6.466;2024-02-23T15:07:49;8.90;99.90
21149;DHT22;10732;51.472;6.466;2024-02-23T15:10:15;8.90;99.90
21149;DHT22;10732;51.472;6.466;2024-02-23T15:12:41;8.80;99.90
21149;DHT22;10732;51.472;6.466;2024-02-23T15:15:07;8.70;99.90
21149;DHT22;10732;51.472;6.466;2024-02-23T15:17:33;8.60;99.90
21149;DHT22;10732;51.472;6.466;2024-02-23T15:19:58;8.70;99.90
21149;DHT22;10732;51.472;6.466;2024-02-23T15:22:24;8.80;99.90
21149;DHT22;10732;51.472;6.466;2024-02-23T15:24:51;8.90;99.90
21149;DHT22;10732;51.472;6.466;2024-02-23T15:27:18;8.90;99.90
21149;DHT22;10732;51.472;6.466;2024-02-23T15:29:43;8.80;99.90
21149;DHT22;10732;51.472;6.466;2024-02-23T15:32:09;8.70;99.90
21149;DHT22;10732;51.472;6.466;2024-02-23T15:34:38;8.70;99.90
21149;DHT22;10732;51.472;6.466;2024-02-23T15:37:04;8.60;99.90